sensor_id;sensor_type;location;lat;lon;timestamp;P1;durP1;ratioP1;P2;durP2;ratioP2
55811;SDS011;41742;52.048;6.092;2022-08-19T00:00:34;2.05;;;1.70;;
55811;SDS011;41742;52.048;6.092;2022-08-19T00:03:01;1.98;;;1.65;;
55811;SDS011;41742;52.048;6.092;2022-08-19T00:05:28;2.75;;;2.17;;
55811;SDS011;41742;52.048;6.092;2022-08-19T00:07:54;4.18;;;1.67;;
55811;SDS011;41742;52.048;6.092;2022-08-19T00:10:19;6.57;;;1.40;;
55811;SDS011;41742;52.048;6.092;2022-08-19T00:12:47;3.38;;;1.90;;
55811;SDS011;41742;52.048;6.092;2022-08-19T00:15:14;1.58;;;1.48;;
55811;SDS011;41742;52.048;6.092;2022-08-19T00:17:42;7.65;;;1.52;;
55811;SDS011;41742;52.048;6.092;2022-08-19T00:20:09;4.32;;;1.73;;
55811;SDS011;41742;52.048;6.092;2022-08-19T00:22:37;1.80;;;1.40;;
55811;SDS011;41742;52.048;6.092;2022-08-19T00:25:04;2.50;;;1.80;;
55811;SDS011;41742;52.048;6.092;2022-08-19T00:27:33;1.58;;;1.33;;
55811;SDS011;41742;52.048;6.092;2022-08-19T00:29:59;1.95;;;1.75;;
55811;SDS011;41742;52.048;6.092;2022-08-19T00:32:26;2.78;;;1.48;;
55811;SDS011;41742;52.048;6.092;2022-08-19T00:34:52;5.20;;;2.65;;
55811;SDS011;41742;52.048;6.092;2022-08-19T00:37:19;1.90;;;1.58;;
55811;SDS011;41742;52.048;6.092;2022-08-19T00:39:48;3.00;;;2.13;;
55811;SDS011;41742;52.048;6.092;2022-08-19T00:42:14;2.15;;;1.95;;
55811;SDS011;41742;52.048;6.092;2022-08-19T00:44:40;2.75;;;1.75;;
55811;SDS011;41742;52.048;6.092;2022-08-19T00:47:06;1.67;;;1.27;;
55811;SDS011;41742;52.048;6.092;2022-08-19T00:49:34;2.00;;;1.80;;
55811;SDS011;41742;52.048;6.092;2022-08-19T00:52:08;8.55;;;1.60;;
55811;SDS011;41742;52.048;6.092;2022-08-19T00:54:37;4.97;;;1.50;;
55811;SDS011;41742;52.048;6.092;2022-08-19T00:57:05;5.78;;;1.92;;
55811;SDS011;41742;52.048;6.092;2022-08-19T00:59:34;3.85;;;1.77;;
55811;SDS011;41742;52.048;6.092;2022-08-19T01:02:04;1.85;;;1.70;;
55811;SDS011;41742;52.048;6.092;2022-08-19T01:04:30;2.22;;;2.03;;
55811;SDS011;41742;52.048;6.092;2022-08-19T01:06:55;2.63;;;2.08;;
55811;SDS011;41742;52.048;6.092;2022-08-19T01:09:22;2.47;;;2.08;;
55811;SDS011;41742;52.048;6.092;2022-08-19T01:11:48;2.38;;;1.85;;
55811;SDS011;41742;52.048;6.092;2022-08-19T01:14:14;3.53;;;1.63;;
55811;SDS011;41742;52.048;6.092;2022-08-19T01:16:42;2.38;;;1.80;;
55811;SDS011;41742;52.048;6.092;2022-08-19T01:19:10;2.22;;;1.90;;
55811;SDS011;41742;52.048;6.092;2022-08-19T01:24:37;1.80;;;1.65;;
55811;SDS011;41742;52.048;6.092;2022-08-19T01:27:04;4.20;;;1.98;;
55811;SDS011;41742;52.048;6.092;2022-08-19T01:29:31;3.63;;;2.00;;
55811;SDS011;41742;52.048;6.092;2022-08-19T01:31:57;2.28;;;1.75;;
55811;SDS011;41742;52.048;6.092;2022-08-19T01:34:24;4.18;;;2.05;;
55811;SDS011;41742;52.048;6.092;2022-08-19T01:36:49;7.20;;;1.80;;
55811;SDS011;41742;52.048;6.092;2022-08-19T01:39:20;2.10;;;1.90;;
55811;SDS011;41742;52.048;6.092;2022-08-19T01:41:48;3.55;;;2.30;;
55811;SDS011;41742;52.048;6.092;2022-08-19T01:44:14;3.28;;;2.08;;
55811;SDS011;41742;52.048;6.092;2022-08-19T01:46:41;5.82;;;2.13;;
55811;SDS011;41742;52.048;6.092;2022-08-19T01:49:08;6.80;;;2.20;;
55811;SDS011;41742;52.048;6.092;2022-08-19T01:51:35;2.88;;;2.20;;
55811;SDS011;41742;52.048;6.092;2022-08-19T01:54:02;2.22;;;2.03;;
55811;SDS011;41742;52.048;6.092;2022-08-19T01:56:28;4.07;;;2.03;;
55811;SDS011;41742;52.048;6.092;2022-08-19T01:58:55;2.45;;;1.98;;
55811;SDS011;41742;52.048;6.092;2022-08-19T02:01:25;4.50;;;2.97;;
55811;SDS011;41742;52.048;6.092;2022-08-19T02:03:51;4.35;;;2.20;;
55811;SDS011;41742;52.048;6.092;2022-08-19T02:06:18;2.67;;;2.25;;
55811;SDS011;41742;52.048;6.092;2022-08-19T02:08:43;2.70;;;1.85;;
55811;SDS011;41742;52.048;6.092;2022-08-19T02:11:17;2.55;;;1.73;;
55811;SDS011;41742;52.048;6.092;2022-08-19T02:13:46;3.25;;;2.03;;
55811;SDS011;41742;52.048;6.092;2022-08-19T02:16:11;3.72;;;2.45;;
55811;SDS011;41742;52.048;6.092;2022-08-19T02:18:37;2.83;;;2.45;;
55811;SDS011;41742;52.048;6.092;2022-08-19T02:21:03;2.55;;;2.20;;
55811;SDS011;41742;52.048;6.092;2022-08-19T02:23:28;2.35;;;2.10;;
55811;SDS011;41742;52.048;6.092;2022-08-19T02:25:56;3.78;;;2.70;;
55811;SDS011;41742;52.048;6.092;2022-08-19T02:28:21;4.28;;;2.15;;
55811;SDS011;41742;52.048;6.092;2022-08-19T02:30:47;7.18;;;3.30;;
55811;SDS011;41742;52.048;6.092;2022-08-19T02:33:13;2.58;;;2.03;;
55811;SDS011;41742;52.048;6.092;2022-08-19T02:35:43;2.95;;;2.20;;
55811;SDS011;41742;52.048;6.092;2022-08-19T02:38:10;2.35;;;2.15;;
55811;SDS011;41742;52.048;6.092;2022-08-19T02:40:52;4.25;;;2.95;;
55811;SDS011;41742;52.048;6.092;2022-08-19T02:43:19;3.25;;;2.58;;
55811;SDS011;41742;52.048;6.092;2022-08-19T02:45:46;3.55;;;1.83;;
55811;SDS011;41742;52.048;6.092;2022-08-19T02:48:16;2.58;;;2.00;;
55811;SDS011;41742;52.048;6.092;2022-08-19T02:50:43;2.72;;;2.00;;
55811;SDS011;41742;52.048;6.092;2022-08-19T02:53:09;2.13;;;1.92;;
55811;SDS011;41742;52.048;6.092;2022-08-19T02:55:36;3.20;;;2.38;;
55811;SDS011;41742;52.048;6.092;2022-08-19T02:58:08;6.05;;;2.13;;
55811;SDS011;41742;52.048;6.092;2022-08-19T03:00:33;2.75;;;2.50;;
55811;SDS011;41742;52.048;6.092;2022-08-19T03:02:59;3.03;;;2.25;;
55811;SDS011;41742;52.048;6.092;2022-08-19T03:05:25;2.25;;;1.83;;
55811;SDS011;41742;52.048;6.092;2022-08-19T03:07:52;4.57;;;2.10;;
55811;SDS011;41742;52.048;6.092;2022-08-19T03:10:17;4.30;;;2.85;;
55811;SDS011;41742;52.048;6.092;2022-08-19T03:12:43;2.75;;;2.50;;
55811;SDS011;41742;52.048;6.092;2022-08-19T03:15:11;2.40;;;2.20;;
55811;SDS011;41742;52.048;6.092;2022-08-19T03:17:36;3.15;;;1.88;;
55811;SDS011;41742;52.048;6.092;2022-08-19T03:20:02;16.98;;;2.50;;
55811;SDS011;41742;52.048;6.092;2022-08-19T03:22:29;2.75;;;2.42;;
55811;SDS011;41742;52.048;6.092;2022-08-19T03:24:55;3.75;;;2.40;;
55811;SDS011;41742;52.048;6.092;2022-08-19T03:27:21;2.35;;;2.13;;
55811;SDS011;41742;52.048;6.092;2022-08-19T03:29:47;2.55;;;2.15;;
55811;SDS011;41742;52.048;6.092;2022-08-19T03:32:13;3.50;;;2.38;;
55811;SDS011;41742;52.048;6.092;2022-08-19T03:34:38;2.78;;;2.47;;
55811;SDS011;41742;52.048;6.092;2022-08-19T03:37:05;3.88;;;2.10;;
55811;SDS011;41742;52.048;6.092;2022-08-19T03:39:33;2.97;;;2.67;;
55811;SDS011;41742;52.048;6.092;2022-08-19T03:42:00;2.30;;;2.10;;
55811;SDS011;41742;52.048;6.092;2022-08-19T03:44:27;2.88;;;1.95;;
55811;SDS011;41742;52.048;6.092;2022-08-19T03:46:55;2.63;;;2.10;;
55811;SDS011;41742;52.048;6.092;2022-08-19T03:49:23;3.38;;;2.30;;
55811;SDS011;41742;52.048;6.092;2022-08-19T03:51:52;2.47;;;2.20;;
55811;SDS011;41742;52.048;6.092;2022-08-19T03:54:20;2.83;;;1.98;;
55811;SDS011;41742;52.048;6.092;2022-08-19T03:56:48;2.20;;;2.00;;
55811;SDS011;41742;52.048;6.092;2022-08-19T03:59:17;2.30;;;1.98;;
55811;SDS011;41742;52.048;6.092;2022-08-19T04:01:58;4.05;;;2.55;;
55811;SDS011;41742;52.048;6.092;2022-08-19T04:04:25;2.75;;;2.20;;
55811;SDS011;41742;52.048;6.092;2022-08-19T04:06:51;2.47;;;2.20;;
55811;SDS011;41742;52.048;6.092;2022-08-19T04:09:17;2.85;;;2.20;;
55811;SDS011;41742;52.048;6.092;2022-08-19T04:11:45;2.38;;;1.95;;
55811;SDS011;41742;52.048;6.092;2022-08-19T04:14:14;2.25;;;2.00;;
55811;SDS011;41742;52.048;6.092;2022-08-19T04:16:42;2.72;;;1.70;;
55811;SDS011;41742;52.048;6.092;2022-08-19T04:19:09;2.00;;;1.55;;
55811;SDS011;41742;52.048;6.092;2022-08-19T04:21:35;2.35;;;2.13;;
55811;SDS011;41742;52.048;6.092;2022-08-19T04:24:01;2.53;;;1.95;;
55811;SDS011;41742;52.048;6.092;2022-08-19T04:26:29;2.22;;;1.92;;
55811;SDS011;41742;52.048;6.092;2022-08-19T04:28:57;2.95;;;2.08;;
55811;SDS011;41742;52.048;6.092;2022-08-19T04:31:25;1.60;;;1.50;;
55811;SDS011;41742;52.048;6.092;2022-08-19T04:33:52;2.08;;;1.83;;
55811;SDS011;41742;52.048;6.092;2022-08-19T04:36:23;2.28;;;2.00;;
55811;SDS011;41742;52.048;6.092;2022-08-19T04:38:52;2.67;;;2.30;;
55811;SDS011;41742;52.048;6.092;2022-08-19T04:41:19;4.70;;;2.10;;
55811;SDS011;41742;52.048;6.092;2022-08-19T04:44:04;2.08;;;1.85;;
55811;SDS011;41742;52.048;6.092;2022-08-19T04:46:29;2.25;;;1.75;;
55811;SDS011;41742;52.048;6.092;2022-08-19T04:48:57;2.95;;;2.22;;
55811;SDS011;41742;52.048;6.092;2022-08-19T04:51:26;2.17;;;1.63;;
55811;SDS011;41742;52.048;6.092;2022-08-19T04:53:52;3.03;;;1.90;;
55811;SDS011;41742;52.048;6.092;2022-08-19T04:56:19;3.03;;;2.17;;
55811;SDS011;41742;52.048;6.092;2022-08-19T04:58:47;3.38;;;2.55;;
55811;SDS011;41742;52.048;6.092;2022-08-19T05:01:19;2.55;;;2.35;;
55811;SDS011;41742;52.048;6.092;2022-08-19T05:03:48;5.18;;;2.28;;
55811;SDS011;41742;52.048;6.092;2022-08-19T05:06:14;1.88;;;1.77;;
55811;SDS011;41742;52.048;6.092;2022-08-19T05:08:43;3.25;;;2.10;;
55811;SDS011;41742;52.048;6.092;2022-08-19T05:11:11;2.67;;;1.85;;
55811;SDS011;41742;52.048;6.092;2022-08-19T05:13:50;1.88;;;1.70;;
55811;SDS011;41742;52.048;6.092;2022-08-19T05:16:18;3.10;;;1.90;;
55811;SDS011;41742;52.048;6.092;2022-08-19T05:18:46;5.65;;;2.72;;
55811;SDS011;41742;52.048;6.092;2022-08-19T05:21:31;2.70;;;2.20;;
55811;SDS011;41742;52.048;6.092;2022-08-19T05:24:16;3.15;;;2.00;;
55811;SDS011;41742;52.048;6.092;2022-08-19T05:26:44;5.72;;;1.98;;
55811;SDS011;41742;52.048;6.092;2022-08-19T05:29:12;3.67;;;2.25;;
55811;SDS011;41742;52.048;6.092;2022-08-19T05:31:40;3.03;;;2.30;;
55811;SDS011;41742;52.048;6.092;2022-08-19T05:34:06;8.02;;;2.28;;
55811;SDS011;41742;52.048;6.092;2022-08-19T05:36:37;4.30;;;2.80;;
55811;SDS011;41742;52.048;6.092;2022-08-19T05:41:31;2.65;;;2.28;;
55811;SDS011;41742;52.048;6.092;2022-08-19T05:43:58;3.65;;;2.38;;
55811;SDS011;41742;52.048;6.092;2022-08-19T05:46:26;3.50;;;3.05;;
55811;SDS011;41742;52.048;6.092;2022-08-19T05:48:51;2.92;;;2.53;;
55811;SDS011;41742;52.048;6.092;2022-08-19T05:51:17;3.92;;;3.17;;
55811;SDS011;41742;52.048;6.092;2022-08-19T05:53:43;4.85;;;3.45;;
55811;SDS011;41742;52.048;6.092;2022-08-19T05:56:14;5.50;;;3.95;;
55811;SDS011;41742;52.048;6.092;2022-08-19T05:58:42;4.20;;;3.08;;
55811;SDS011;41742;52.048;6.092;2022-08-19T06:01:11;3.38;;;2.67;;
55811;SDS011;41742;52.048;6.092;2022-08-19T06:03:39;5.40;;;3.30;;
55811;SDS011;41742;52.048;6.092;2022-08-19T06:06:05;3.95;;;3.30;;
55811;SDS011;41742;52.048;6.092;2022-08-19T06:08:32;4.55;;;3.63;;
55811;SDS011;41742;52.048;6.092;2022-08-19T06:10:58;3.28;;;2.90;;
55811;SDS011;41742;52.048;6.092;2022-08-19T06:13:41;2.47;;;2.25;;
55811;SDS011;41742;52.048;6.092;2022-08-19T06:16:07;2.95;;;2.40;;
55811;SDS011;41742;52.048;6.092;2022-08-19T06:18:33;2.92;;;2.38;;
55811;SDS011;41742;52.048;6.092;2022-08-19T06:20:58;3.55;;;2.72;;
55811;SDS011;41742;52.048;6.092;2022-08-19T06:23:24;2.22;;;2.03;;
55811;SDS011;41742;52.048;6.092;2022-08-19T06:25:50;2.92;;;2.50;;
55811;SDS011;41742;52.048;6.092;2022-08-19T06:28:16;5.35;;;2.90;;
55811;SDS011;41742;52.048;6.092;2022-08-19T06:30:45;3.70;;;2.60;;
55811;SDS011;41742;52.048;6.092;2022-08-19T06:33:10;3.45;;;2.85;;
55811;SDS011;41742;52.048;6.092;2022-08-19T06:35:39;11.82;;;3.22;;
55811;SDS011;41742;52.048;6.092;2022-08-19T06:38:05;9.00;;;5.88;;
55811;SDS011;41742;52.048;6.092;2022-08-19T06:40:31;11.38;;;6.35;;
55811;SDS011;41742;52.048;6.092;2022-08-19T06:42:57;10.93;;;8.18;;
55811;SDS011;41742;52.048;6.092;2022-08-19T06:45:24;13.77;;;7.43;;
55811;SDS011;41742;52.048;6.092;2022-08-19T06:47:51;9.27;;;6.03;;
55811;SDS011;41742;52.048;6.092;2022-08-19T06:50:21;10.07;;;7.70;;
55811;SDS011;41742;52.048;6.092;2022-08-19T06:52:48;13.10;;;7.85;;
55811;SDS011;41742;52.048;6.092;2022-08-19T06:55:14;16.67;;;8.80;;
55811;SDS011;41742;52.048;6.092;2022-08-19T06:57:40;11.75;;;8.02;;
55811;SDS011;41742;52.048;6.092;2022-08-19T07:00:08;18.85;;;9.10;;
55811;SDS011;41742;52.048;6.092;2022-08-19T07:02:43;13.90;;;8.57;;
55811;SDS011;41742;52.048;6.092;2022-08-19T07:05:09;15.15;;;8.23;;
55811;SDS011;41742;52.048;6.092;2022-08-19T07:07:35;15.75;;;8.27;;
55811;SDS011;41742;52.048;6.092;2022-08-19T07:10:01;14.60;;;8.50;;
55811;SDS011;41742;52.048;6.092;2022-08-19T07:12:29;13.98;;;8.60;;
55811;SDS011;41742;52.048;6.092;2022-08-19T07:14:57;18.60;;;8.73;;
55811;SDS011;41742;52.048;6.092;2022-08-19T07:17:23;22.23;;;9.05;;
55811;SDS011;41742;52.048;6.092;2022-08-19T07:19:49;14.27;;;7.85;;
55811;SDS011;41742;52.048;6.092;2022-08-19T07:22:15;21.42;;;9.25;;
55811;SDS011;41742;52.048;6.092;2022-08-19T07:24:41;17.67;;;9.27;;
55811;SDS011;41742;52.048;6.092;2022-08-19T07:27:06;17.15;;;8.85;;
55811;SDS011;41742;52.048;6.092;2022-08-19T07:29:35;14.70;;;8.30;;
55811;SDS011;41742;52.048;6.092;2022-08-19T07:32:02;14.15;;;8.52;;
55811;SDS011;41742;52.048;6.092;2022-08-19T07:34:29;15.27;;;7.93;;
55811;SDS011;41742;52.048;6.092;2022-08-19T07:36:55;14.85;;;8.98;;
55811;SDS011;41742;52.048;6.092;2022-08-19T07:39:23;12.25;;;7.75;;
55811;SDS011;41742;52.048;6.092;2022-08-19T07:41:55;19.65;;;8.75;;
55811;SDS011;41742;52.048;6.092;2022-08-19T07:44:22;13.27;;;7.60;;
55811;SDS011;41742;52.048;6.092;2022-08-19T07:46:49;12.98;;;8.73;;
55811;SDS011;41742;52.048;6.092;2022-08-19T07:49:17;15.95;;;8.35;;
55811;SDS011;41742;52.048;6.092;2022-08-19T07:52:00;14.88;;;9.15;;
55811;SDS011;41742;52.048;6.092;2022-08-19T07:54:30;12.98;;;8.05;;
55811;SDS011;41742;52.048;6.092;2022-08-19T07:56:59;13.50;;;9.70;;
55811;SDS011;41742;52.048;6.092;2022-08-19T07:59:25;15.38;;;9.23;;
55811;SDS011;41742;52.048;6.092;2022-08-19T08:01:53;20.75;;;12.68;;
55811;SDS011;41742;52.048;6.092;2022-08-19T08:04:20;18.65;;;10.30;;
55811;SDS011;41742;52.048;6.092;2022-08-19T08:07:05;15.90;;;9.82;;
55811;SDS011;41742;52.048;6.092;2022-08-19T08:09:50;16.50;;;10.00;;
55811;SDS011;41742;52.048;6.092;2022-08-19T08:12:37;20.67;;;11.80;;
55811;SDS011;41742;52.048;6.092;2022-08-19T08:15:10;21.02;;;13.43;;
55811;SDS011;41742;52.048;6.092;2022-08-19T08:17:41;21.20;;;12.23;;
55811;SDS011;41742;52.048;6.092;2022-08-19T08:20:07;22.83;;;11.77;;
55811;SDS011;41742;52.048;6.092;2022-08-19T08:22:33;23.27;;;12.23;;
55811;SDS011;41742;52.048;6.092;2022-08-19T08:25:18;20.52;;;12.65;;
55811;SDS011;41742;52.048;6.092;2022-08-19T08:27:49;25.35;;;14.85;;
55811;SDS011;41742;52.048;6.092;2022-08-19T08:30:20;31.52;;;16.42;;
55811;SDS011;41742;52.048;6.092;2022-08-19T08:32:47;26.80;;;13.68;;
55811;SDS011;41742;52.048;6.092;2022-08-19T08:35:14;24.75;;;14.20;;
55811;SDS011;41742;52.048;6.092;2022-08-19T08:37:42;30.65;;;15.88;;
55811;SDS011;41742;52.048;6.092;2022-08-19T08:40:16;32.85;;;15.20;;
55811;SDS011;41742;52.048;6.092;2022-08-19T08:42:49;26.15;;;14.75;;
55811;SDS011;41742;52.048;6.092;2022-08-19T08:45:20;26.58;;;13.32;;
55811;SDS011;41742;52.048;6.092;2022-08-19T08:47:48;32.50;;;15.60;;
55811;SDS011;41742;52.048;6.092;2022-08-19T08:52:50;27.88;;;15.02;;
55811;SDS011;41742;52.048;6.092;2022-08-19T08:55:22;32.00;;;15.80;;
55811;SDS011;41742;52.048;6.092;2022-08-19T08:57:54;25.83;;;14.73;;
55811;SDS011;41742;52.048;6.092;2022-08-19T09:00:39;33.55;;;16.63;;
55811;SDS011;41742;52.048;6.092;2022-08-19T09:03:10;31.77;;;16.08;;
55811;SDS011;41742;52.048;6.092;2022-08-19T09:05:59;30.83;;;17.50;;
55811;SDS011;41742;52.048;6.092;2022-08-19T09:11:15;32.00;;;16.67;;
55811;SDS011;41742;52.048;6.092;2022-08-19T09:16:45;24.05;;;14.40;;
55811;SDS011;41742;52.048;6.092;2022-08-19T09:19:11;29.92;;;13.93;;
55811;SDS011;41742;52.048;6.092;2022-08-19T09:21:36;24.63;;;15.35;;
55811;SDS011;41742;52.048;6.092;2022-08-19T09:24:04;22.75;;;12.65;;
55811;SDS011;41742;52.048;6.092;2022-08-19T09:26:30;19.38;;;11.07;;
55811;SDS011;41742;52.048;6.092;2022-08-19T09:28:58;19.80;;;10.35;;
55811;SDS011;41742;52.048;6.092;2022-08-19T09:31:25;11.48;;;8.00;;
55811;SDS011;41742;52.048;6.092;2022-08-19T09:33:52;13.60;;;8.57;;
55811;SDS011;41742;52.048;6.092;2022-08-19T09:36:22;11.13;;;6.65;;
55811;SDS011;41742;52.048;6.092;2022-08-19T09:38:49;12.25;;;7.90;;
55811;SDS011;41742;52.048;6.092;2022-08-19T09:41:21;13.77;;;8.45;;
55811;SDS011;41742;52.048;6.092;2022-08-19T09:43:49;13.40;;;7.82;;
55811;SDS011;41742;52.048;6.092;2022-08-19T09:46:21;13.85;;;7.10;;
55811;SDS011;41742;52.048;6.092;2022-08-19T09:48:49;12.75;;;8.40;;
55811;SDS011;41742;52.048;6.092;2022-08-19T09:51:17;14.10;;;8.68;;
55811;SDS011;41742;52.048;6.092;2022-08-19T09:53:46;16.75;;;8.63;;
55811;SDS011;41742;52.048;6.092;2022-08-19T09:56:14;10.38;;;7.00;;
55811;SDS011;41742;52.048;6.092;2022-08-19T09:58:41;22.60;;;7.03;;
55811;SDS011;41742;52.048;6.092;2022-08-19T10:01:07;14.60;;;6.97;;
55811;SDS011;41742;52.048;6.092;2022-08-19T10:03:35;12.25;;;7.40;;
55811;SDS011;41742;52.048;6.092;2022-08-19T10:06:03;14.68;;;7.85;;
55811;SDS011;41742;52.048;6.092;2022-08-19T10:08:31;12.15;;;7.03;;
55811;SDS011;41742;52.048;6.092;2022-08-19T10:10:59;16.95;;;9.20;;
55811;SDS011;41742;52.048;6.092;2022-08-19T10:13:27;13.98;;;8.27;;
55811;SDS011;41742;52.048;6.092;2022-08-19T10:15:55;24.80;;;11.27;;
55811;SDS011;41742;52.048;6.092;2022-08-19T10:18:22;17.75;;;10.15;;
55811;SDS011;41742;52.048;6.092;2022-08-19T10:20:50;18.02;;;10.82;;
55811;SDS011;41742;52.048;6.092;2022-08-19T10:23:19;17.90;;;10.77;;
55811;SDS011;41742;52.048;6.092;2022-08-19T10:25:46;20.13;;;9.55;;
55811;SDS011;41742;52.048;6.092;2022-08-19T10:28:12;20.77;;;9.88;;
55811;SDS011;41742;52.048;6.092;2022-08-19T10:30:38;23.15;;;9.38;;
55811;SDS011;41742;52.048;6.092;2022-08-19T10:33:05;14.63;;;8.15;;
55811;SDS011;41742;52.048;6.092;2022-08-19T10:35:31;20.25;;;10.32;;
55811;SDS011;41742;52.048;6.092;2022-08-19T10:37:58;20.20;;;9.95;;
55811;SDS011;41742;52.048;6.092;2022-08-19T10:40:24;13.77;;;7.65;;
55811;SDS011;41742;52.048;6.092;2022-08-19T10:42:52;14.07;;;6.95;;
55811;SDS011;41742;52.048;6.092;2022-08-19T10:45:18;11.00;;;5.07;;
55811;SDS011;41742;52.048;6.092;2022-08-19T10:47:43;16.33;;;6.60;;
55811;SDS011;41742;52.048;6.092;2022-08-19T10:50:09;11.32;;;6.15;;
55811;SDS011;41742;52.048;6.092;2022-08-19T10:52:54;10.05;;;4.80;;
55811;SDS011;41742;52.048;6.092;2022-08-19T10:55:21;8.20;;;4.68;;
55811;SDS011;41742;52.048;6.092;2022-08-19T10:58:10;13.55;;;6.18;;
55811;SDS011;41742;52.048;6.092;2022-08-19T11:00:38;14.13;;;8.50;;
55811;SDS011;41742;52.048;6.092;2022-08-19T11:03:03;12.27;;;6.45;;
55811;SDS011;41742;52.048;6.092;2022-08-19T11:05:29;16.75;;;8.38;;
55811;SDS011;41742;52.048;6.092;2022-08-19T11:07:55;6.05;;;4.10;;
55811;SDS011;41742;52.048;6.092;2022-08-19T11:10:20;10.68;;;6.07;;
55811;SDS011;41742;52.048;6.092;2022-08-19T11:12:46;10.50;;;5.88;;
55811;SDS011;41742;52.048;6.092;2022-08-19T11:15:12;10.45;;;6.22;;
55811;SDS011;41742;52.048;6.092;2022-08-19T11:17:38;13.68;;;5.78;;
55811;SDS011;41742;52.048;6.092;2022-08-19T11:20:09;12.50;;;7.38;;
55811;SDS011;41742;52.048;6.092;2022-08-19T11:22:37;17.92;;;6.88;;
55811;SDS011;41742;52.048;6.092;2022-08-19T11:25:03;13.80;;;5.50;;
55811;SDS011;41742;52.048;6.092;2022-08-19T11:27:29;19.20;;;6.75;;
55811;SDS011;41742;52.048;6.092;2022-08-19T11:29:55;10.98;;;7.07;;
55811;SDS011;41742;52.048;6.092;2022-08-19T11:32:20;13.18;;;6.60;;
55811;SDS011;41742;52.048;6.092;2022-08-19T11:34:46;15.77;;;8.77;;
55811;SDS011;41742;52.048;6.092;2022-08-19T11:37:12;23.05;;;8.48;;
55811;SDS011;41742;52.048;6.092;2022-08-19T11:39:37;14.52;;;6.95;;
55811;SDS011;41742;52.048;6.092;2022-08-19T11:42:04;18.23;;;8.75;;
55811;SDS011;41742;52.048;6.092;2022-08-19T11:44:51;12.95;;;7.03;;
55811;SDS011;41742;52.048;6.092;2022-08-19T11:47:17;14.98;;;8.32;;
55811;SDS011;41742;52.048;6.092;2022-08-19T11:49:43;14.38;;;7.80;;
55811;SDS011;41742;52.048;6.092;2022-08-19T11:52:10;15.70;;;8.50;;
55811;SDS011;41742;52.048;6.092;2022-08-19T11:54:36;19.17;;;9.63;;
55811;SDS011;41742;52.048;6.092;2022-08-19T11:57:02;10.52;;;6.47;;
55811;SDS011;41742;52.048;6.092;2022-08-19T11:59:28;13.15;;;7.70;;
55811;SDS011;41742;52.048;6.092;2022-08-19T12:01:54;16.77;;;8.00;;
55811;SDS011;41742;52.048;6.092;2022-08-19T12:04:20;18.30;;;7.15;;
55811;SDS011;41742;52.048;6.092;2022-08-19T12:06:46;14.75;;;8.32;;
55811;SDS011;41742;52.048;6.092;2022-08-19T12:09:12;10.75;;;7.03;;
55811;SDS011;41742;52.048;6.092;2022-08-19T12:11:39;12.43;;;6.90;;
55811;SDS011;41742;52.048;6.092;2022-08-19T12:14:06;11.05;;;7.32;;
55811;SDS011;41742;52.048;6.092;2022-08-19T12:16:34;11.10;;;7.05;;
55811;SDS011;41742;52.048;6.092;2022-08-19T12:19:00;13.00;;;6.80;;
55811;SDS011;41742;52.048;6.092;2022-08-19T12:21:29;11.50;;;6.85;;
55811;SDS011;41742;52.048;6.092;2022-08-19T12:23:57;8.77;;;5.13;;
55811;SDS011;41742;52.048;6.092;2022-08-19T12:26:24;16.90;;;6.82;;
55811;SDS011;41742;52.048;6.092;2022-08-19T12:28:51;11.90;;;6.57;;
55811;SDS011;41742;52.048;6.092;2022-08-19T12:31:17;9.00;;;4.82;;
55811;SDS011;41742;52.048;6.092;2022-08-19T12:33:44;18.60;;;5.60;;
55811;SDS011;41742;52.048;6.092;2022-08-19T12:36:12;7.80;;;5.50;;
55811;SDS011;41742;52.048;6.092;2022-08-19T12:38:40;13.07;;;6.10;;
55811;SDS011;41742;52.048;6.092;2022-08-19T12:41:07;8.10;;;5.03;;
55811;SDS011;41742;52.048;6.092;2022-08-19T12:43:36;10.70;;;6.30;;
55811;SDS011;41742;52.048;6.092;2022-08-19T12:46:03;7.53;;;5.07;;
55811;SDS011;41742;52.048;6.092;2022-08-19T12:48:30;10.05;;;4.55;;
55811;SDS011;41742;52.048;6.092;2022-08-19T12:50:56;13.25;;;5.70;;
55811;SDS011;41742;52.048;6.092;2022-08-19T12:53:22;13.48;;;4.38;;
55811;SDS011;41742;52.048;6.092;2022-08-19T12:55:54;7.22;;;4.43;;
55811;SDS011;41742;52.048;6.092;2022-08-19T12:58:21;7.65;;;4.55;;
55811;SDS011;41742;52.048;6.092;2022-08-19T13:00:47;10.93;;;4.32;;
55811;SDS011;41742;52.048;6.092;2022-08-19T13:03:13;7.95;;;4.07;;
55811;SDS011;41742;52.048;6.092;2022-08-19T13:05:40;15.27;;;6.93;;
55811;SDS011;41742;52.048;6.092;2022-08-19T13:08:05;7.35;;;4.93;;
55811;SDS011;41742;52.048;6.092;2022-08-19T13:10:32;8.13;;;4.75;;
55811;SDS011;41742;52.048;6.092;2022-08-19T13:13:01;13.88;;;3.65;;
55811;SDS011;41742;52.048;6.092;2022-08-19T13:15:32;5.70;;;2.90;;
55811;SDS011;41742;52.048;6.092;2022-08-19T13:17:59;4.70;;;2.65;;
55811;SDS011;41742;52.048;6.092;2022-08-19T13:20:26;4.85;;;3.17;;
55811;SDS011;41742;52.048;6.092;2022-08-19T13:22:52;3.80;;;2.78;;
55811;SDS011;41742;52.048;6.092;2022-08-19T13:25:18;6.60;;;3.72;;
55811;SDS011;41742;52.048;6.092;2022-08-19T13:27:45;6.03;;;3.08;;
55811;SDS011;41742;52.048;6.092;2022-08-19T13:30:12;7.65;;;3.47;;
55811;SDS011;41742;52.048;6.092;2022-08-19T13:32:57;15.95;;;4.25;;
55811;SDS011;41742;52.048;6.092;2022-08-19T13:35:42;4.45;;;3.33;;
55811;SDS011;41742;52.048;6.092;2022-08-19T13:38:13;9.00;;;3.13;;
55811;SDS011;41742;52.048;6.092;2022-08-19T13:40:41;6.75;;;3.03;;
55811;SDS011;41742;52.048;6.092;2022-08-19T13:43:08;7.82;;;3.42;;
55811;SDS011;41742;52.048;6.092;2022-08-19T13:45:34;4.40;;;3.22;;
55811;SDS011;41742;52.048;6.092;2022-08-19T13:48:01;10.32;;;4.97;;
55811;SDS011;41742;52.048;6.092;2022-08-19T13:50:33;10.32;;;4.57;;
55811;SDS011;41742;52.048;6.092;2022-08-19T13:53:02;5.50;;;3.67;;
55811;SDS011;41742;52.048;6.092;2022-08-19T13:55:29;3.72;;;2.95;;
55811;SDS011;41742;52.048;6.092;2022-08-19T13:57:57;6.82;;;3.65;;
55811;SDS011;41742;52.048;6.092;2022-08-19T14:00:26;7.47;;;4.22;;
55811;SDS011;41742;52.048;6.092;2022-08-19T14:02:53;6.45;;;4.03;;
55811;SDS011;41742;52.048;6.092;2022-08-19T14:05:20;6.88;;;3.70;;
55811;SDS011;41742;52.048;6.092;2022-08-19T14:07:47;13.73;;;4.03;;
55811;SDS011;41742;52.048;6.092;2022-08-19T14:10:13;11.48;;;3.88;;
55811;SDS011;41742;52.048;6.092;2022-08-19T14:12:41;8.43;;;3.70;;
55811;SDS011;41742;52.048;6.092;2022-08-19T14:15:07;4.35;;;3.80;;
55811;SDS011;41742;52.048;6.092;2022-08-19T14:17:34;7.10;;;3.08;;
55811;SDS011;41742;52.048;6.092;2022-08-19T14:20:03;5.70;;;3.53;;
55811;SDS011;41742;52.048;6.092;2022-08-19T14:22:34;5.03;;;3.60;;
55811;SDS011;41742;52.048;6.092;2022-08-19T14:25:01;9.50;;;3.28;;
55811;SDS011;41742;52.048;6.092;2022-08-19T14:27:29;7.78;;;4.10;;
55811;SDS011;41742;52.048;6.092;2022-08-19T14:29:54;7.68;;;3.33;;
55811;SDS011;41742;52.048;6.092;2022-08-19T14:32:20;5.53;;;3.40;;
55811;SDS011;41742;52.048;6.092;2022-08-19T14:34:46;5.97;;;4.20;;
55811;SDS011;41742;52.048;6.092;2022-08-19T14:37:12;13.18;;;4.55;;
55811;SDS011;41742;52.048;6.092;2022-08-19T14:39:39;8.55;;;3.90;;
55811;SDS011;41742;52.048;6.092;2022-08-19T14:42:10;6.45;;;4.10;;
55811;SDS011;41742;52.048;6.092;2022-08-19T14:44:36;8.13;;;4.63;;
55811;SDS011;41742;52.048;6.092;2022-08-19T14:47:02;7.22;;;5.07;;
55811;SDS011;41742;52.048;6.092;2022-08-19T14:49:28;11.95;;;3.90;;
55811;SDS011;41742;52.048;6.092;2022-08-19T14:51:54;9.48;;;5.35;;
55811;SDS011;41742;52.048;6.092;2022-08-19T14:54:20;9.15;;;4.75;;
55811;SDS011;41742;52.048;6.092;2022-08-19T14:56:46;14.05;;;5.82;;
55811;SDS011;41742;52.048;6.092;2022-08-19T14:59:13;10.25;;;5.18;;